Skip Navigation Links
NOAA logo - Click to go to the NOAA homepage
NOAA's National Weather Service
Alaska Aviation Weather Unit
  NWS logo - Click to go to the NWS homepage
Left Navbar Graphic     19 AKDT = 03 GMT

   
NOAA is celebrating 200 years of science, service, and stewardship. Visit the NOAA 200th celebration Web site to learn more.
USA.gov is the U.S. Government's official Web portal to all Federal, state and local government Web resources and services.
Facebook
NWS on Facebook

Important Change Regarding the AAWU Web Presence

 

Over the last several months, the AAWU has been working to navigate its webpages to a nationally supported server. Security, as well as other needs, have necessitated the change.  In the process, we have made an effort to enhance the functionality of our website, as well as some of our products. As of June 20, 2017, aawu.arh.noaa.gov will be discontinued. The new AAWU web address is weather.gov/aawu. It is now live and will run in-parallel with the old site until it is discontinued. Please send any feedback or questions regarding the new webpages to nws.ar.aawu.webauthors@noaa.gov.  Thank you for your patience during this time of transition.
AAWU Home :: Display TAF Add Bookmark
METAR PADE 242153Z AUTO 14013KT 10SM SCT022 BKN038 OVC046 08/04 A2942
     RMK AO2 RAE53 SLP964 P0001 T00830044 TSNO $=

METAR PADE 242253Z AUTO 14011KT 10SM -RA FEW021 BKN043 OVC050 08/04
     A2942 RMK AO2 RAB2154 SLP963 P0001 T00830044 TSNO $=

SPECI PADE 242345Z AUTO 15014KT 10SM FEW019 BKN026 OVC070 09/04 A2941
     RMK AO2 RAE24 P0000 T00940044 TSNO $=

METAR PADE 242353Z AUTO 14011KT 10SM SCT023 BKN036 OVC075 10/04 A2941
     RMK AO2 RAE24 SLP960 P0000 60005 T01000044 10100 20033 56005
     TSNO $=

METAR PADE 250053Z AUTO 18011KT 10SM -RA FEW028 BKN045 OVC085 11/03
 A2941 RMK AO2 RAB15 SLP959 P0000 T01110033 TSNO $=

METAR PADE 250153Z AUTO 17017G20KT 10SM SCT038 OVC049 11/02 A2941
 RMK AO2 RAE18 SLP959 P0000 T01110022 TSNO $=


NOAA's National Weather Service
Alaska Aviation Weather Unit
6930 Sand Lake Road
Anchorage, AK 99502-1845
Disclaimer
Credits
Glossary
Privacy Policy
About Us
Career Opportunities
Contact AAWU Internet Services Site last modified: April, 17th 2012